Time;durP1;ratioP1;P1;durP2;ratioP2;P2;SDS_P1;SDS_P2;PMS_P1;PMS_P2;Temp;Humidity;BMP_temperature;BMP_pressure;BME280_temperature;BME280_humidity;BME280_pressure;Samples;Min_cycle;Max_cycle;Signal;HPM_P1;HPM_P2
2022/07/08 00:01:36;;;;;;;14.97;3.50;;;;;;;12.23;100.00;101968.06;4997007;28;20041;-76
2022/07/08 00:04:01;;;;;;;19.88;4.25;;;;;;;12.09;100.00;101955.13;4981024;28;20276;-77
2022/07/08 00:06:27;;;;;;;23.43;4.03;;;;;;;12.11;100.00;101974.59;4994032;28;20034;-75
2022/07/08 00:08:52;;;;;;;22.90;4.47;;;;;;;12.08;100.00;101965.00;4977578;28;20361;-75
2022/07/08 00:11:17;;;;;;;19.73;3.60;;;;;;;12.07;100.00;101970.50;4994234;28;20035;-76
2022/07/08 00:13:43;;;;;;;15.70;5.30;;;;;;;12.15;100.00;101976.84;4979331;28;20459;-76
2022/07/08 00:16:08;;;;;;;20.33;5.27;;;;;;;12.00;100.00;101971.06;4995527;28;20039;-76
2022/07/08 00:18:34;;;;;;;24.20;3.90;;;;;;;12.02;100.00;101973.59;4996929;28;20026;-77
2022/07/08 00:20:59;;;;;;;22.77;4.72;;;;;;;11.90;100.00;101972.06;5003456;28;20495;-76
2022/07/08 00:23:24;;;;;;;17.50;4.10;;;;;;;12.00;100.00;101980.91;4977576;28;20121;-76
2022/07/08 00:25:50;;;;;;;27.37;4.63;;;;;;;11.95;100.00;101981.34;4999311;28;20030;-76
2022/07/08 00:28:15;;;;;;;25.17;3.67;;;;;;;11.92;100.00;101983.47;4996391;28;20080;-76
2022/07/08 00:30:41;;;;;;;20.87;3.97;;;;;;;11.96;100.00;101982.19;4980480;28;20034;-76
2022/07/08 00:33:06;;;;;;;27.80;4.63;;;;;;;11.87;100.00;101985.66;4996544;28;20068;-76
2022/07/08 00:35:32;;;;;;;16.60;3.22;;;;;;;11.82;100.00;101992.31;4996323;28;20030;-74
2022/07/08 00:37:57;;;;;;;16.60;3.73;;;;;;;11.81;100.00;101995.13;4996972;28;20541;-76
2022/07/08 00:40:23;;;;;;;25.27;3.40;;;;;;;11.81;100.00;102001.31;4996837;28;20038;-74
2022/07/08 00:42:48;;;;;;;22.23;4.40;;;;;;;11.80;100.00;102002.31;4996249;28;20029;-75
2022/07/08 00:45:15;;;;;;;16.43;3.97;;;;;;;11.84;100.00;102008.19;4993338;28;20046;-76
2022/07/08 00:47:40;;;;;;;26.20;4.63;;;;;;;11.84;100.00;102014.41;4991979;28;20352;-76
2022/07/08 00:50:06;;;;;;;22.43;3.93;;;;;;;11.79;100.00;102010.47;4993298;28;20056;-76
2022/07/08 00:52:32;;;;;;;21.50;5.13;;;;;;;11.80;100.00;102010.31;4995088;28;20025;-75
2022/07/08 00:54:59;;;;;;;32.05;4.93;;;;;;;11.83;100.00;102010.03;4996175;28;20037;-75
2022/07/08 00:57:25;;;;;;;23.85;4.68;;;;;;;11.83;100.00;102003.84;4993666;28;20444;-75
2022/07/08 00:59:51;;;;;;;21.63;4.07;;;;;;;11.80;100.00;102007.66;4993084;28;20126;-76
2022/07/08 01:02:16;;;;;;;22.30;5.45;;;;;;;11.70;100.00;102013.97;4996142;28;20129;-76
2022/07/08 01:04:42;;;;;;;19.87;4.10;;;;;;;11.69;100.00;102010.44;4980203;28;20037;-74
2022/07/08 01:07:48;;;;;;;22.13;5.27;;;;;;;11.73;100.00;102024.38;4979634;28;20014;-75
2022/07/08 01:10:13;;;;;;;20.25;4.03;;;;;;;11.65;100.00;102021.56;4988890;28;20277;-75
2022/07/08 01:12:39;;;;;;;28.27;5.53;;;;;;;11.56;100.00;102028.59;4996416;28;20036;-76
2022/07/08 01:15:05;;;;;;;24.60;5.97;;;;;;;11.54;100.00;102023.38;5001485;28;20227;-76
2022/07/08 01:17:43;;;;;;;21.77;5.78;;;;;;;11.50;100.00;102029.16;5002344;28;20063;-75
2022/07/08 01:20:10;;;;;;;21.77;3.85;;;;;;;11.54;100.00;102035.91;5001280;28;20066;-75
2022/07/08 01:22:35;;;;;;;34.17;5.80;;;;;;;11.43;100.00;102028.84;4978566;28;20379;-75
2022/07/08 01:25:01;;;;;;;25.20;4.10;;;;;;;11.44;100.00;102029.69;5001867;28;20072;-75
2022/07/08 01:27:27;;;;;;;21.33;4.57;;;;;;;11.39;100.00;102017.56;5002119;28;20061;-77
2022/07/08 01:29:52;;;;;;;19.05;3.45;;;;;;;11.32;100.00;102021.78;5001975;28;20038;-76
2022/07/08 01:32:18;;;;;;;23.00;3.77;;;;;;;11.34;100.00;102033.19;4985392;28;20022;-75
2022/07/08 01:34:43;;;;;;;24.07;4.10;;;;;;;11.33;100.00;102027.97;4997363;28;20038;-75
2022/07/08 01:37:08;;;;;;;24.77;4.87;;;;;;;11.30;100.00;102034.44;4984765;28;20109;-75
2022/07/08 01:39:34;;;;;;;24.00;5.10;;;;;;;11.32;100.00;102032.47;5006498;28;20034;-76
2022/07/08 01:41:59;;;;;;;22.00;4.17;;;;;;;11.22;100.00;102031.59;5006890;28;20026;-75
2022/07/08 01:44:25;;;;;;;15.57;3.40;;;;;;;11.20;100.00;102021.03;5005027;28;20371;-76
2022/07/08 01:46:50;;;;;;;17.83;4.80;;;;;;;11.24;100.00;102021.63;5005380;28;20025;-76
2022/07/08 01:49:15;;;;;;;21.03;3.60;;;;;;;11.17;100.00;102017.81;5004784;28;20204;-76
2022/07/08 01:51:41;;;;;;;31.57;7.47;;;;;;;11.17;100.00;102017.81;5006156;28;20630;-75
2022/07/08 01:54:07;;;;;;;17.85;3.90;;;;;;;11.16;100.00;102010.75;5004220;28;20044;-75
2022/07/08 01:56:32;;;;;;;21.55;4.03;;;;;;;11.16;100.00;102019.59;4999753;28;20022;-76
2022/07/08 01:58:58;;;;;;;23.70;5.47;;;;;;;11.13;100.00;102024.38;5005699;28;20030;-76
2022/07/08 02:01:23;;;;;;;21.33;3.67;;;;;;;11.08;100.00;102029.28;5004500;28;20398;-76
2022/07/08 02:03:48;;;;;;;16.43;3.60;;;;;;;11.02;100.00;102021.81;5005096;28;20057;-75
2022/07/08 02:06:14;;;;;;;25.93;4.67;;;;;;;11.04;100.00;102027.88;5005187;28;20479;-75
2022/07/08 02:08:39;;;;;;;23.77;4.20;;;;;;;11.08;100.00;102024.78;5004981;28;20036;-76
2022/07/08 02:13:48;;;;;;;21.10;4.47;;;;;;;11.17;100.00;102020.47;5005270;28;20364;-75
2022/07/08 02:16:14;;;;;;;15.67;4.90;;;;;;;11.20;100.00;102023.69;4987703;28;20079;-75
2022/07/08 02:18:40;;;;;;;23.45;4.25;;;;;;;11.15;100.00;102014.41;5004991;28;20033;-75
2022/07/08 02:21:05;;;;;;;17.73;5.10;;;;;;;11.15;100.00;102022.44;5003506;28;20061;-75
2022/07/08 02:23:31;;;;;;;30.53;3.53;;;;;;;11.10;100.00;102024.66;5004853;28;20152;-76
2022/07/08 02:25:57;;;;;;;25.33;3.83;;;;;;;11.11;100.00;102029.03;4988050;28;20065;-76
2022/07/08 02:28:23;;;;;;;22.85;4.40;;;;;;;11.02;100.00;102032.50;5003827;28;20407;-76
2022/07/08 02:30:48;;;;;;;17.97;4.43;;;;;;;10.97;100.00;102040.91;5004667;28;20026;-76
2022/07/08 02:33:13;;;;;;;10.77;3.20;;;;;;;10.99;100.00;102031.78;5003971;28;20626;-76
2022/07/08 02:35:39;;;;;;;22.47;3.20;;;;;;;11.02;100.00;102033.34;5005243;28;20097;-76
2022/07/08 02:38:04;;;;;;;14.23;3.17;;;;;;;10.94;100.00;102039.34;5002883;28;20040;-76
2022/07/08 02:40:30;;;;;;;22.47;2.93;;;;;;;10.94;100.00;102038.53;5003148;28;20408;-75
2022/07/08 02:42:55;;;;;;;18.30;3.90;;;;;;;10.95;100.00;102042.88;5004354;28;20399;-76
2022/07/08 02:45:20;;;;;;;19.37;4.00;;;;;;;10.90;100.00;102043.25;5003496;28;20030;-76
2022/07/08 02:47:46;;;;;;;20.47;3.97;;;;;;;10.92;100.00;102038.63;4998041;28;20311;-75
2022/07/08 02:50:11;;;;;;;17.17;4.23;;;;;;;11.01;100.00;102044.19;5004612;28;20040;-77
2022/07/08 02:52:37;;;;;;;24.17;4.10;;;;;;;10.98;100.00;102053.31;5005932;28;20033;-76
2022/07/08 02:55:03;;;;;;;17.70;3.20;;;;;;;11.10;100.00;102064.75;5003745;28;20034;-76
2022/07/08 02:57:28;;;;;;;18.10;3.65;;;;;;;11.02;100.00;102051.19;5004965;28;20471;-76
2022/07/08 02:59:53;;;;;;;17.07;3.87;;;;;;;11.06;100.00;102047.28;5003619;28;20025;-75
2022/07/08 03:02:19;;;;;;;18.17;4.80;;;;;;;11.12;100.00;102047.59;4996575;28;20468;-75
2022/07/08 03:04:44;;;;;;;14.67;3.57;;;;;;;11.11;100.00;102037.88;4998259;28;20039;-75
2022/07/08 03:07:10;;;;;;;14.40;3.13;;;;;;;11.15;100.00;102041.97;4984250;28;20030;-75
2022/07/08 03:09:35;;;;;;;14.97;3.70;;;;;;;11.15;100.00;102036.63;5005051;28;20076;-76
2022/07/08 03:12:00;;;;;;;19.00;3.20;;;;;;;11.14;100.00;102028.75;5003881;28;20866;-75
2022/07/08 03:14:26;;;;;;;15.70;3.27;;;;;;;11.23;100.00;102043.97;5003586;28;20162;-75
2022/07/08 03:16:51;;;;;;;20.67;3.80;;;;;;;11.31;100.00;102030.78;5003641;28;20037;-75
2022/07/08 03:19:16;;;;;;;14.30;3.37;;;;;;;11.33;100.00;102034.19;5002757;28;20033;-75
2022/07/08 03:21:42;;;;;;;15.00;3.27;;;;;;;11.33;100.00;102042.19;5003708;28;20037;-76
2022/07/08 03:24:07;;;;;;;17.13;5.13;;;;;;;11.36;100.00;102038.41;5002073;28;20040;-75
2022/07/08 03:26:33;;;;;;;19.50;3.10;;;;;;;11.40;100.00;102035.31;5004712;28;20064;-76
2022/07/08 03:28:59;;;;;;;14.52;2.75;;;;;;;11.43;100.00;102030.69;5005202;28;20284;-76
2022/07/08 03:31:24;;;;;;;15.73;5.20;;;;;;;11.56;100.00;102039.28;4996089;28;20479;-75
2022/07/08 03:33:50;;;;;;;14.87;3.10;;;;;;;11.69;100.00;102033.69;5004665;28;20049;-76
2022/07/08 03:36:16;;;;;;;19.77;3.38;;;;;;;11.79;100.00;102040.72;5002402;28;20103;-75
2022/07/08 03:38:41;;;;;;;20.90;3.30;;;;;;;11.86;100.00;102045.53;4987183;28;20022;-75
2022/07/08 03:41:23;;;;;;;15.13;4.00;;;;;;;11.89;100.00;102031.91;5002728;28;20042;-76
2022/07/08 03:43:53;;;;;;;23.02;6.55;;;;;;;11.96;100.00;102041.06;5003151;28;20096;-75
2022/07/08 03:46:19;;;;;;;15.23;3.17;;;;;;;11.93;100.00;102044.88;5003930;28;20036;-75
2022/07/08 03:48:44;;;;;;;17.95;3.00;;;;;;;11.95;100.00;102036.72;5003462;28;20137;-76
2022/07/08 03:51:10;;;;;;;15.13;3.23;;;;;;;12.03;100.00;102037.69;5002359;28;20116;-76
2022/07/08 03:53:36;;;;;;;12.27;2.38;;;;;;;12.06;100.00;102041.94;5003311;28;20069;-76
2022/07/08 03:56:03;;;;;;;23.23;3.87;;;;;;;12.06;100.00;102046.41;5002787;28;20036;-75
2022/07/08 03:58:29;;;;;;;14.30;2.55;;;;;;;11.98;100.00;102047.13;4987963;28;20113;-76
2022/07/08 04:00:54;;;;;;;11.80;2.80;;;;;;;11.90;100.00;102052.34;5002535;28;20100;-76
2022/07/08 04:03:20;;;;;;;12.40;2.90;;;;;;;11.88;100.00;102060.50;5002133;28;20555;-76
2022/07/08 04:05:45;;;;;;;13.73;2.33;;;;;;;11.93;100.00;102058.25;5002936;28;20363;-76
2022/07/08 04:08:10;;;;;;;13.27;2.73;;;;;;;12.14;100.00;102073.34;4986058;28;20574;-76
2022/07/08 04:10:36;;;;;;;18.53;2.93;;;;;;;12.29;100.00;102069.28;5002121;28;20034;-76
2022/07/08 04:13:01;;;;;;;23.77;4.77;;;;;;;12.27;100.00;102059.66;4995777;28;20081;-75
2022/07/08 04:15:27;;;;;;;13.10;2.77;;;;;;;12.19;100.00;102053.19;5002331;28;20282;-74
2022/07/08 04:17:52;;;;;;;12.50;2.63;;;;;;;12.23;100.00;102059.94;5002786;28;20033;-76
2022/07/08 04:20:18;;;;;;;13.95;3.05;;;;;;;12.29;100.00;102060.38;5002071;28;20506;-75
2022/07/08 04:22:44;;;;;;;16.95;3.40;;;;;;;12.31;100.00;102061.06;5004267;28;20069;-75
2022/07/08 04:25:10;;;;;;;11.07;2.90;;;;;;;12.32;100.00;102070.81;5019997;23;20073;-73
2022/07/08 04:27:35;;;;;;;18.65;4.07;;;;;;;12.29;100.00;102061.22;5020792;28;20280;-73
2022/07/08 04:30:01;;;;;;;13.27;3.17;;;;;;;12.36;100.00;102080.22;5006573;28;20558;-73
2022/07/08 04:32:26;;;;;;;10.13;3.00;;;;;;;12.50;100.00;102077.13;5021604;28;20042;-73
2022/07/08 04:34:52;;;;;;;12.03;2.40;;;;;;;12.57;100.00;102080.94;5005961;28;20277;-73
2022/07/08 04:37:18;;;;;;;12.33;2.13;;;;;;;12.58;100.00;102069.22;5004085;28;20390;-73
2022/07/08 04:39:44;;;;;;;12.98;2.10;;;;;;;12.80;100.00;102062.69;5019821;28;20018;-73
2022/07/08 04:42:09;;;;;;;13.85;3.08;;;;;;;12.86;100.00;102067.47;5004452;28;20485;-73
2022/07/08 04:44:35;;;;;;;17.43;2.43;;;;;;;12.81;100.00;102064.38;5020259;28;20026;-73
2022/07/08 04:47:01;;;;;;;11.75;2.33;;;;;;;12.71;100.00;102058.19;5003384;28;20036;-73
2022/07/08 04:49:26;;;;;;;15.40;2.43;;;;;;;12.84;100.00;102049.84;5020094;28;20036;-73
2022/07/08 04:51:52;;;;;;;17.73;2.80;;;;;;;12.82;100.00;102054.50;5003890;28;20029;-73
2022/07/08 04:54:17;;;;;;;16.87;2.93;;;;;;;12.98;100.00;102048.53;5017928;28;20463;-73
2022/07/08 04:56:42;;;;;;;12.40;2.43;;;;;;;13.05;100.00;102044.28;5013261;28;20111;-73
2022/07/08 04:59:08;;;;;;;16.07;3.10;;;;;;;13.22;100.00;102043.47;5020093;28;20269;-73
2022/07/08 05:01:34;;;;;;;16.97;3.47;;;;;;;13.22;100.00;102024.72;5002865;28;20037;-73
2022/07/08 05:03:59;;;;;;;12.95;2.35;;;;;;;13.46;100.00;102037.63;5004748;28;20334;-73
2022/07/08 05:06:25;;;;;;;13.70;2.53;;;;;;;13.48;100.00;102030.25;5004540;28;20040;-73
2022/07/08 05:08:50;;;;;;;12.60;2.20;;;;;;;13.63;100.00;102019.03;5004928;28;20108;-73
2022/07/08 05:11:16;;;;;;;8.97;2.20;;;;;;;13.73;100.00;102009.06;5005609;28;20373;-73
2022/07/08 05:13:41;;;;;;;12.97;1.97;;;;;;;13.75;100.00;102015.13;5016918;28;20028;-72
2022/07/08 05:16:07;;;;;;;21.17;3.63;;;;;;;13.90;100.00;102008.19;5019749;28;20479;-73
2022/07/08 05:18:32;;;;;;;19.03;2.57;;;;;;;14.08;100.00;102010.06;5008215;28;20490;-73
2022/07/08 05:20:57;;;;;;;11.10;2.30;;;;;;;14.22;100.00;102009.50;5008490;28;20033;-72
2022/07/08 05:23:23;;;;;;;15.00;2.50;;;;;;;14.07;100.00;101990.41;5023719;28;20128;-72
2022/07/08 05:25:48;;;;;;;19.80;4.40;;;;;;;14.29;100.00;101977.50;5007397;28;20065;-73
2022/07/08 05:28:13;;;;;;;6.17;1.80;;;;;;;14.50;100.00;101969.06;5007231;28;20090;-72
2022/07/08 05:30:39;;;;;;;15.10;2.73;;;;;;;14.18;100.00;101959.78;5016009;28;20494;-72
2022/07/08 05:33:04;;;;;;;15.00;2.30;;;;;;;14.20;100.00;101965.84;5008251;28;20400;-72
2022/07/08 05:35:30;;;;;;;10.53;2.60;;;;;;;13.97;100.00;101978.06;5023775;28;20508;-72
2022/07/08 05:37:55;;;;;;;16.63;2.93;;;;;;;14.08;100.00;102004.69;5018275;28;20025;-72
2022/07/08 05:40:21;;;;;;;7.23;1.73;;;;;;;14.35;100.00;102003.72;5007385;28;20037;-72
2022/07/08 05:42:46;;;;;;;13.73;2.10;;;;;;;14.13;100.00;101992.47;5016063;28;20033;-73
2022/07/08 05:45:13;;;;;;;18.97;3.20;;;;;;;14.11;100.00;102018.63;5020001;28;20068;-72
2022/07/08 05:47:39;;;;;;;7.93;2.10;;;;;;;15.12;100.00;102044.19;5015373;28;20459;-73
2022/07/08 05:50:05;;;;;;;9.27;2.17;;;;;;;14.89;100.00;101965.94;5018685;28;20042;-72
2022/07/08 05:52:31;;;;;;;18.35;2.85;;;;;;;15.11;100.00;101973.44;5023362;28;20034;-73
2022/07/08 05:54:57;;;;;;;16.80;2.80;;;;;;;14.76;100.00;101900.00;5008042;28;20030;-72
2022/07/08 05:57:22;;;;;;;12.50;2.30;;;;;;;14.54;100.00;101927.47;5007298;28;20038;-73
2022/07/08 05:59:50;;;;;;;13.98;2.25;;;;;;;14.55;100.00;101958.72;5007771;28;20084;-72
2022/07/08 06:02:15;;;;;;;13.93;2.58;;;;;;;15.01;100.00;101982.63;5006394;28;20030;-73
2022/07/08 06:04:41;;;;;;;11.40;2.37;;;;;;;15.10;100.00;101950.25;5023189;28;20037;-73
2022/07/08 06:07:07;;;;;;;17.77;2.78;;;;;;;15.48;100.00;101974.88;5006035;28;20064;-72
2022/07/08 06:09:33;;;;;;;12.50;2.53;;;;;;;15.67;100.00;101978.28;5006004;28;20061;-73
2022/07/08 06:11:58;;;;;;;12.75;3.20;;;;;;;15.25;100.00;101912.78;5007716;28;20064;-72
2022/07/08 06:14:24;;;;;;;27.00;4.55;;;;;;;15.55;100.00;101940.91;5006927;28;20081;-73
2022/07/08 06:16:49;;;;;;;15.10;2.50;;;;;;;15.81;100.00;101911.19;5007189;28;20029;-72
2022/07/08 06:19:15;;;;;;;17.47;3.10;;;;;;;15.74;100.00;101922.81;5007245;28;20276;-72
2022/07/08 06:21:42;;;;;;;10.18;2.28;;;;;;;15.38;100.00;101901.53;5021424;28;20049;-73
2022/07/08 06:24:07;;;;;;;15.50;2.78;;;;;;;15.33;100.00;101926.22;5011908;28;20033;-73
2022/07/08 06:26:32;;;;;;;10.77;2.80;;;;;;;15.32;100.00;101919.19;5006916;28;20467;-73
2022/07/08 06:28:58;;;;;;;8.40;2.43;;;;;;;15.29;100.00;101973.31;5017615;28;20030;-73
2022/07/08 06:31:23;;;;;;;14.50;2.63;;;;;;;14.94;100.00;102001.25;5006451;28;20281;-72
2022/07/08 06:33:56;;;;;;;11.63;3.17;;;;;;;14.76;100.00;102030.91;5016380;28;20220;-73
2022/07/08 06:36:24;;;;;;;10.25;2.35;;;;;;;14.70;100.00;102058.41;5006865;28;20049;-72
2022/07/08 06:38:51;;;;;;;10.52;3.28;;;;;;;15.06;100.00;102112.94;5021999;28;20025;-72
2022/07/08 06:41:17;;;;;;;8.98;2.28;;;;;;;14.82;100.00;102062.53;5013736;28;20034;-73
2022/07/08 06:43:43;;;;;;;18.63;3.45;;;;;;;14.83;100.00;102099.16;5007012;28;20056;-72
2022/07/08 06:46:09;;;;;;;18.23;2.90;;;;;;;14.94;100.00;102087.31;5005503;28;20414;-72
2022/07/08 06:48:34;;;;;;;12.97;2.80;;;;;;;14.99;100.00;102101.13;5005478;28;20029;-72
2022/07/08 06:50:59;;;;;;;12.63;3.50;;;;;;;14.95;100.00;102103.28;5005441;28;20544;-73
2022/07/08 06:53:25;;;;;;;13.40;2.33;;;;;;;14.93;100.00;102101.75;5020182;28;20036;-73
2022/07/08 06:55:50;;;;;;;28.52;4.25;;;;;;;14.78;100.00;102105.00;5005393;28;20184;-73
2022/07/08 06:58:16;;;;;;;12.37;2.43;;;;;;;14.83;100.00;102130.59;5005223;28;20414;-73
2022/07/08 07:00:42;;;;;;;16.13;2.75;;;;;;;14.77;100.00;102134.72;5006392;28;20030;-73
2022/07/08 07:03:08;;;;;;;10.75;2.17;;;;;;;14.69;100.00;102146.28;5006059;28;20052;-73
2022/07/08 07:05:33;;;;;;;11.33;2.87;;;;;;;14.75;100.00;102148.34;5005255;28;20091;-73
2022/07/08 07:07:58;;;;;;;18.47;3.43;;;;;;;14.84;100.00;102169.91;5006418;28;20447;-73
2022/07/08 07:10:24;;;;;;;10.03;3.20;;;;;;;14.88;100.00;102185.56;5004919;28;20088;-73
2022/07/08 07:12:49;;;;;;;11.07;3.23;;;;;;;14.63;100.00;102175.59;5005374;28;20595;-73
2022/07/08 07:15:15;;;;;;;12.25;2.47;;;;;;;14.51;100.00;102189.25;5005158;28;20038;-73
2022/07/08 07:17:42;;;;;;;12.73;2.27;;;;;;;14.62;100.00;102206.19;5006345;28;20026;-74
2022/07/08 07:20:08;;;;;;;15.25;3.53;;;;;;;14.51;100.00;102220.66;5021167;28;20046;-73
2022/07/08 07:22:34;;;;;;;11.20;2.75;;;;;;;14.49;100.00;102234.25;5004994;28;20025;-73
2022/07/08 07:25:00;;;;;;;16.20;2.90;;;;;;;14.29;100.00;102236.22;5005428;28;20034;-73
2022/07/08 07:27:25;;;;;;;15.20;2.90;;;;;;;14.40;100.00;102247.72;5019957;28;20025;-73
2022/07/08 07:29:50;;;;;;;15.37;3.80;;;;;;;14.55;100.00;102243.56;5021310;28;20346;-73
2022/07/08 07:32:16;;;;;;;15.83;4.03;;;;;;;14.47;100.00;102246.13;5018705;28;20049;-73
2022/07/08 07:34:41;;;;;;;7.77;2.50;;;;;;;14.26;100.00;102255.31;5004419;28;20156;-73
2022/07/08 07:37:07;;;;;;;15.10;3.00;;;;;;;14.23;100.00;102260.97;5005774;28;20034;-73
2022/07/08 07:39:33;;;;;;;15.07;3.13;;;;;;;14.25;100.00;102253.63;5006082;28;20040;-73
2022/07/08 07:41:59;;;;;;;12.02;3.15;;;;;;;14.28;100.00;102280.22;5004827;28;20022;-73
2022/07/08 07:44:24;;;;;;;16.48;3.10;;;;;;;14.28;100.00;102282.03;5020701;28;20026;-73
2022/07/08 07:46:49;;;;;;;16.00;3.70;;;;;;;14.17;100.00;102280.41;5004401;28;20022;-73
2022/07/08 07:49:15;;;;;;;14.67;3.13;;;;;;;14.21;100.00;102292.53;5021084;28;20403;-73
2022/07/08 07:51:40;;;;;;;16.10;4.60;;;;;;;14.22;100.00;102280.78;5004769;28;20028;-73
2022/07/08 07:54:06;;;;;;;14.03;3.63;;;;;;;14.20;100.00;102293.53;5004499;28;20041;-73
2022/07/08 07:56:32;;;;;;;16.70;3.47;;;;;;;14.22;100.00;102290.69;5005783;28;20049;-73
2022/07/08 07:58:58;;;;;;;16.88;2.92;;;;;;;14.32;100.00;102291.47;5004395;28;20560;-73
2022/07/08 08:01:23;;;;;;;13.30;3.27;;;;;;;14.30;100.00;102280.88;5005698;28;20347;-73
2022/07/08 08:03:49;;;;;;;17.77;3.28;;;;;;;14.33;100.00;102299.41;5004510;28;20038;-73
2022/07/08 08:06:14;;;;;;;11.10;3.63;;;;;;;14.39;100.00;102286.34;5004228;28;20033;-73
2022/07/08 08:08:40;;;;;;;12.50;2.87;;;;;;;14.46;100.00;102293.66;5013710;28;20048;-74
2022/07/08 08:11:05;;;;;;;24.00;5.03;;;;;;;14.56;100.00;102299.00;5005471;28;20030;-74
2022/07/08 08:13:31;;;;;;;14.40;3.33;;;;;;;14.53;100.00;102286.69;5012577;28;20292;-74
2022/07/08 08:15:57;;;;;;;13.07;2.87;;;;;;;14.55;100.00;102290.09;5015081;28;20474;-73
2022/07/08 08:18:22;;;;;;;15.10;3.50;;;;;;;14.61;100.00;102291.34;5005329;28;20439;-73
2022/07/08 08:20:48;;;;;;;11.57;3.10;;;;;;;14.68;100.00;102297.81;5014493;28;20514;-74
2022/07/08 08:23:13;;;;;;;19.75;3.50;;;;;;;14.63;100.00;102289.34;5017964;28;20537;-71
2022/07/08 08:25:39;;;;;;;12.97;3.77;;;;;;;14.72;100.00;102287.59;5020734;28;20076;-72
2022/07/08 08:28:04;;;;;;;14.73;2.87;;;;;;;14.80;100.00;102284.13;5003414;28;20034;-74
2022/07/08 08:30:30;;;;;;;20.98;3.42;;;;;;;14.95;100.00;102283.44;5005161;28;20058;-74
2022/07/08 08:32:56;;;;;;;17.77;3.78;;;;;;;14.98;100.00;102271.53;5020366;28;20088;-74
2022/07/08 08:35:22;;;;;;;9.20;2.20;;;;;;;14.99;100.00;102265.19;5020540;28;20032;-74
2022/07/08 08:37:47;;;;;;;19.98;4.05;;;;;;;15.08;100.00;102271.47;5003849;28;20030;-73
2022/07/08 08:40:13;;;;;;;8.55;2.45;;;;;;;15.03;100.00;102263.88;5017446;28;20037;-73
2022/07/08 08:42:40;;;;;;;11.55;2.80;;;;;;;15.10;100.00;102259.56;5005586;28;20033;-73
2022/07/08 08:45:07;;;;;;;11.50;2.33;;;;;;;15.25;100.00;102267.91;5016541;28;20048;-74
2022/07/08 08:47:36;;;;;;;15.68;2.50;;;;;;;15.55;100.00;102284.63;5023530;28;20542;-74
2022/07/08 08:52:53;;;;;;;8.63;2.47;;;;;;;15.68;100.00;102294.94;5024458;28;20026;-73
2022/07/08 08:55:27;;;;;;;7.63;2.40;;;;;;;15.77;100.00;102297.56;5022431;28;20048;-73
2022/07/08 08:57:57;;;;;;;6.43;3.03;;;;;;;15.90;100.00;102289.06;5023714;28;20041;-74
2022/07/08 09:00:25;;;;;;;11.43;3.00;;;;;;;16.00;100.00;102283.56;5024146;28;20513;-72
2022/07/08 09:02:51;;;;;;;4.43;2.08;;;;;;;15.82;100.00;102256.69;5009144;28;20022;-73
2022/07/08 09:05:17;;;;;;;4.85;2.00;;;;;;;15.92;100.00;102260.13;5007621;28;20088;-73
2022/07/08 09:07:43;;;;;;;9.15;2.40;;;;;;;15.86;100.00;102263.44;5008866;28;20489;-74
2022/07/08 09:10:09;;;;;;;6.88;2.17;;;;;;;15.87;100.00;102262.44;5020596;28;20379;-73
2022/07/08 09:12:34;;;;;;;7.97;2.13;;;;;;;15.86;100.00;102270.69;5008820;28;20097;-73
2022/07/08 09:15:01;;;;;;;3.80;2.23;;;;;;;16.11;100.00;102285.97;5008906;28;20092;-73
2022/07/08 09:17:27;;;;;;;6.32;2.20;;;;;;;16.35;100.00;102273.59;5023884;28;20092;-73
2022/07/08 09:19:52;;;;;;;8.85;1.80;;;;;;;16.87;100.00;102259.91;5017946;28;20045;-74
2022/07/08 09:22:22;;;;;;;5.80;2.67;;;;;;;16.80;100.00;102230.06;5022595;28;20069;-72
2022/07/08 09:24:48;;;;;;;7.30;2.22;;;;;;;16.66;100.00;102214.53;5006788;28;20030;-74
2022/07/08 09:27:14;;;;;;;7.30;1.67;;;;;;;16.66;100.00;102211.81;5008197;28;20033;-72
2022/07/08 09:29:57;;;;;;;5.25;1.33;;;;;;;16.60;100.00;102210.66;5007003;28;20038;-74
2022/07/08 09:32:22;;;;;;;5.15;1.70;;;;;;;16.52;100.00;102216.00;5007096;28;20025;-73
2022/07/08 09:34:48;;;;;;;2.80;1.37;;;;;;;16.71;100.00;102212.16;5006975;28;20037;-73
2022/07/08 09:37:18;;;;;;;3.53;1.10;;;;;;;16.29;100.00;102190.69;5007755;28;20033;-72
2022/07/08 09:39:44;;;;;;;1.83;0.98;;;;;;;16.27;100.00;102220.50;5008019;28;20037;-73
2022/07/08 09:42:11;;;;;;;1.70;1.10;;;;;;;16.23;100.00;102233.47;5008349;28;20037;-74
2022/07/08 09:44:37;;;;;;;1.95;1.00;;;;;;;16.36;100.00;102265.34;5023263;28;20038;-73
2022/07/08 09:47:10;;;;;;;1.58;0.90;;;;;;;16.34;100.00;102239.56;5006939;28;20498;-74
2022/07/08 09:49:39;;;;;;;3.17;0.90;;;;;;;16.86;100.00;102237.50;5001401;28;20080;-73
2022/07/08 09:52:05;;;;;;;4.75;0.95;;;;;;;17.63;100.00;102234.38;5019349;28;20509;-74
2022/07/08 09:54:30;;;;;;;2.17;1.98;;;;;;;18.18;100.00;102156.16;5011606;28;20026;-73
2022/07/08 09:57:07;;;;;;;1.25;0.50;;;;;;;18.48;100.00;102094.94;5007308;28;20045;-74
2022/07/08 09:59:35;;;;;;;1.80;0.50;;;;;;;18.08;100.00;102038.31;5007893;28;20125;-74
2022/07/08 10:02:01;;;;;;;1.85;0.60;;;;;;;18.34;100.00;102062.25;5023293;28;20025;-73
2022/07/08 10:04:27;;;;;;;2.42;0.55;;;;;;;18.45;100.00;102038.50;5022933;28;20033;-74
2022/07/08 10:06:53;;;;;;;;;;;;;;;18.94;100.00;102017.25;5017662;28;20025;-73
2022/07/08 10:09:20;;;;;;;2.03;0.47;;;;;;;19.26;100.00;101990.78;5020965;28;19972;-73
2022/07/08 10:11:47;;;;;;;1.35;0.70;;;;;;;19.42;100.00;102007.84;5006324;28;20541;-74
2022/07/08 10:14:13;;;;;;;1.63;0.70;;;;;;;19.04;100.00;101929.53;5006236;28;20486;-74
2022/07/08 10:16:40;;;;;;;3.70;0.88;;;;;;;18.97;100.00;101951.91;5006076;28;20109;-73
2022/07/08 10:19:10;;;;;;;1.35;0.68;;;;;;;18.73;100.00;102014.38;5022651;28;20789;-75
2022/07/08 10:21:39;;;;;;;1.50;0.68;;;;;;;18.97;100.00;102059.31;5007643;28;20033;-74
2022/07/08 10:24:07;;;;;;;0.70;0.60;;;;;;;18.37;100.00;102015.09;5006206;28;20471;-74
2022/07/08 10:26:40;;;;;;;2.80;0.98;;;;;;;18.03;100.00;102050.69;5054303;22;20053;-77
2022/07/08 10:29:07;;;;;;;1.23;0.77;;;;;;;17.83;100.00;102099.78;5034735;28;20040;-77
2022/07/08 10:31:47;;;;;;;3.83;0.73;;;;;;;17.30;100.00;102106.72;5025748;28;20479;-76
2022/07/08 10:34:17;;;;;;;1.52;0.70;;;;;;;17.17;100.00;102149.63;5027253;28;20466;-76
2022/07/08 10:36:53;;;;;;;2.10;0.80;;;;;;;17.24;100.00;102164.13;5025539;28;20051;-76
2022/07/08 10:39:25;;;;;;;1.60;0.90;;;;;;;17.27;100.00;102148.41;5027062;28;20049;-76
2022/07/08 10:42:02;;;;;;;1.80;0.80;;;;;;;17.36;100.00;102145.69;5009074;28;20124;-76
2022/07/08 10:44:46;;;;;;;3.40;1.17;;;;;;;18.20;100.00;102162.22;5027573;28;20893;-76
2022/07/08 10:47:12;;;;;;;1.15;0.52;;;;;;;19.97;100.00;102099.38;5025513;28;20517;-77
2022/07/08 10:49:45;;;;;;;3.33;1.10;;;;;;;19.78;100.00;101943.66;5027275;28;20029;-76
2022/07/08 10:52:11;;;;;;;2.70;0.70;;;;;;;19.69;100.00;101868.13;5009055;28;20049;-76
2022/07/08 10:54:37;;;;;;;4.63;1.05;;;;;;;20.56;100.00;101858.72;5025924;28;20017;-76
2022/07/08 10:57:16;;;;;;;1.80;0.87;;;;;;;21.73;100.00;101870.25;5025912;28;20819;-76
2022/07/08 11:00:01;;;;;;;3.67;1.27;;;;;;;22.65;100.00;101710.59;4999601;28;20033;-77
2022/07/08 11:02:27;;;;;;;4.20;1.00;;;;;;;21.92;100.00;101685.41;5025207;28;20037;-77
2022/07/08 11:04:53;;;;;;;8.43;0.82;;;;;;;20.95;100.00;101650.88;5026295;28;20021;-77
2022/07/08 11:07:28;;;;;;;;;;;;;;;20.80;100.00;101735.22;5025325;28;20112;-76
2022/07/08 11:10:24;;;;;;;2.03;0.80;;;;;;;20.18;100.00;101754.22;5024016;28;20062;-76
2022/07/08 11:12:50;;;;;;;2.83;0.70;;;;;;;19.63;100.00;101722.59;5020420;28;20041;-76
2022/07/08 11:15:17;;;;;;;2.45;0.80;;;;;;;19.54;100.00;101851.94;5025089;28;20540;-76